createdAt,value
2023-01-30T00:01:19.090Z,85.39
2023-01-30T00:03:47.639Z,85.10
2023-01-30T00:06:16.470Z,85.09
2023-01-30T00:08:46.190Z,85.49
2023-01-30T00:11:16.302Z,85.19
2023-01-30T00:13:45.410Z,85.63
2023-01-30T00:16:22.257Z,85.92
2023-01-30T00:18:51.942Z,86.07
2023-01-30T00:21:22.309Z,85.97
2023-01-30T00:23:54.269Z,85.81
2023-01-30T00:26:24.594Z,85.55
2023-01-30T00:28:54.959Z,85.64
2023-01-30T00:31:29.715Z,85.72
2023-01-30T00:34:27.976Z,85.30
2023-01-30T00:37:07.849Z,85.77
2023-01-30T00:39:37.843Z,86.26
2023-01-30T00:42:25.866Z,86.31
2023-01-30T00:45:11.500Z,86.56
2023-01-30T00:47:42.195Z,86.39
2023-01-30T00:50:13.056Z,86.52
2023-01-30T00:52:46.493Z,86.34
2023-01-30T00:55:17.058Z,85.41
2023-01-30T00:57:47.592Z,85.96
2023-01-30T01:00:23.402Z,86.29
2023-01-30T01:02:57.978Z,86.29
2023-01-30T01:05:32.261Z,85.78
2023-01-30T01:08:03.406Z,86.29
2023-01-30T01:10:31.795Z,86.41
2023-01-30T01:13:03.587Z,86.74
2023-01-30T01:15:31.896Z,86.74
2023-01-30T01:18:03.962Z,86.81
2023-01-30T01:20:32.298Z,86.56
2023-01-30T01:23:04.307Z,86.84
2023-01-30T01:25:32.599Z,86.71
2023-01-30T01:28:32.393Z,86.31
2023-01-30T01:31:08.299Z,86.57
2023-01-30T01:33:41.680Z,86.22
2023-01-30T01:36:29.430Z,86.10
2023-01-30T01:39:04.771Z,85.80
2023-01-30T01:41:32.085Z,85.78
2023-01-30T01:44:03.235Z,85.46
2023-01-30T01:46:34.195Z,84.70
2023-01-30T01:49:07.429Z,84.36
2023-01-30T01:51:41.645Z,84.25
2023-01-30T01:54:15.096Z,84.07
2023-01-30T01:56:49.194Z,84.23
2023-01-30T01:59:24.781Z,84.46
2023-01-30T02:02:01.116Z,84.86
2023-01-30T02:04:54.369Z,85.16
2023-01-30T02:07:26.803Z,85.52
2023-01-30T02:09:55.216Z,85.53
2023-01-30T02:12:24.601Z,85.67
2023-01-30T02:14:57.544Z,85.43
2023-01-30T02:17:26.198Z,85.44
2023-01-30T02:20:06.424Z,85.30
2023-01-30T02:23:25.622Z,85.97
2023-01-30T02:26:32.667Z,87.24
2023-01-30T02:29:33.997Z,88.14
2023-01-30T02:32:11.873Z,87.61
2023-01-30T02:34:51.920Z,87.77
2023-01-30T02:37:36.392Z,88.27
2023-01-30T02:40:17.925Z,88.16
2023-01-30T02:43:01.445Z,88.07
2023-01-30T02:45:37.183Z,88.33
2023-01-30T02:48:20.059Z,88.81
2023-01-30T02:50:55.155Z,89.51
2023-01-30T02:53:23.413Z,89.94
2023-01-30T02:55:53.675Z,90.38
2023-01-30T02:58:24.945Z,90.54
2023-01-30T03:01:08.680Z,90.80
2023-01-30T03:03:55.188Z,90.32
2023-01-30T03:06:43.225Z,89.55
2023-01-30T03:09:19.749Z,89.57
2023-01-30T03:11:57.449Z,90.03
2023-01-30T03:14:30.478Z,90.56
2023-01-30T03:17:02.037Z,90.40
2023-01-30T03:19:31.947Z,90.37
2023-01-30T03:22:01.937Z,89.42
2023-01-30T03:24:30.429Z,89.27
2023-01-30T03:27:09.355Z,89.36
2023-01-30T03:29:38.628Z,89.41
2023-01-30T03:32:07.812Z,89.06
2023-01-30T03:34:41.968Z,89.12
2023-01-30T03:37:12.354Z,89.54
2023-01-30T03:39:40.630Z,89.13
2023-01-30T03:42:15.588Z,89.34
2023-01-30T03:44:44.267Z,89.70
2023-01-30T03:47:12.627Z,89.43
2023-01-30T03:49:42.567Z,88.94
2023-01-30T03:52:11.903Z,89.02
2023-01-30T03:54:41.251Z,89.14
2023-01-30T03:57:09.949Z,89.08
2023-01-30T03:59:39.266Z,88.73
2023-01-30T04:02:13.921Z,88.70
2023-01-30T04:04:45.306Z,88.80
2023-01-30T04:07:13.645Z,88.61
2023-01-30T04:09:44.500Z,89.30
2023-01-30T04:12:15.291Z,89.61
2023-01-30T04:14:53.475Z,89.35
2023-01-30T04:17:45.186Z,89.20
2023-01-30T04:20:38.995Z,89.33
2023-01-30T04:23:08.834Z,89.37
2023-01-30T04:25:38.081Z,89.34
2023-01-30T04:28:08.944Z,89.50
2023-01-30T04:30:39.251Z,89.94
2023-01-30T04:33:26.148Z,90.25
2023-01-30T04:35:57.792Z,90.45
2023-01-30T04:38:27.817Z,90.02
2023-01-30T04:40:58.752Z,90.59
2023-01-30T04:43:30.623Z,90.57
2023-01-30T04:46:01.714Z,90.39
2023-01-30T04:48:32.109Z,90.19
2023-01-30T04:51:03.850Z,90.04
2023-01-30T04:53:32.204Z,89.90
2023-01-30T04:56:02.561Z,89.71
2023-01-30T04:58:31.979Z,89.78
2023-01-30T05:01:15.832Z,90.11
2023-01-30T05:03:47.054Z,90.15
2023-01-30T05:06:36.660Z,89.80
2023-01-30T05:09:10.631Z,89.88
2023-01-30T05:11:41.914Z,89.95
2023-01-30T05:14:10.312Z,89.90
2023-01-30T05:16:39.765Z,89.89
2023-01-30T05:19:14.547Z,90.04
2023-01-30T05:21:57.573Z,89.89
2023-01-30T05:24:25.893Z,89.95
2023-01-30T05:26:54.163Z,90.01
2023-01-30T05:29:22.601Z,89.83
2023-01-30T05:31:51.985Z,89.61
2023-01-30T05:34:21.354Z,89.35
2023-01-30T05:36:49.780Z,89.31
2023-01-30T05:39:20.510Z,89.35
2023-01-30T05:41:48.952Z,89.23
2023-01-30T05:44:18.462Z,88.84
2023-01-30T05:46:46.804Z,88.83
2023-01-30T05:49:15.265Z,89.11
2023-01-30T05:51:44.623Z,89.63
2023-01-30T05:54:12.940Z,90.25
2023-01-30T05:56:45.672Z,91.17
2023-01-30T05:59:15.460Z,91.71
2023-01-30T06:01:44.807Z,91.46
2023-01-30T06:04:14.407Z,91.37
2023-01-30T06:07:11.279Z,91.27
2023-01-30T06:09:46.370Z,91.36
2023-01-30T06:12:17.424Z,91.13
2023-01-30T06:15:09.008Z,90.80
2023-01-30T06:17:37.422Z,90.76
2023-01-30T06:20:13.943Z,91.10
2023-01-30T06:22:43.244Z,91.25
2023-01-30T06:25:13.771Z,91.41
2023-01-30T06:27:44.624Z,91.74
2023-01-30T06:30:14.986Z,91.96
2023-01-30T06:32:45.403Z,92.04
2023-01-30T06:35:15.131Z,91.84
2023-01-30T06:37:47.862Z,91.20
2023-01-30T06:40:20.312Z,91.03
2023-01-30T06:42:51.307Z,90.43
2023-01-30T06:45:23.313Z,90.53
2023-01-30T06:47:53.925Z,90.89
2023-01-30T06:50:27.661Z,91.32
2023-01-30T06:53:04.306Z,91.32
2023-01-30T06:55:36.923Z,91.27
2023-01-30T06:58:20.107Z,91.44
2023-01-30T07:00:49.640Z,91.38
2023-01-30T07:03:30.162Z,91.16
2023-01-30T07:06:00.466Z,90.98
2023-01-30T07:08:37.807Z,90.71
2023-01-30T07:11:07.892Z,90.35
2023-01-30T07:13:37.914Z,89.89
2023-01-30T07:17:07.592Z,90.45
2023-01-30T07:19:37.028Z,90.69
2023-01-30T07:22:09.260Z,90.61
2023-01-30T07:24:39.896Z,90.25
2023-01-30T07:27:08.943Z,90.89
2023-01-30T07:29:41.466Z,90.79
2023-01-30T07:32:16.666Z,90.66
2023-01-30T07:34:46.053Z,90.52
2023-01-30T07:37:19.132Z,90.39
2023-01-30T07:39:48.665Z,90.14
2023-01-30T07:42:21.032Z,90.22
2023-01-30T07:44:51.975Z,89.86
2023-01-30T07:47:51.091Z,89.76
2023-01-30T07:50:20.266Z,90.16
2023-01-30T07:53:31.671Z,89.93
2023-01-30T07:56:33.056Z,89.67
2023-01-30T07:59:08.537Z,90.57
2023-01-30T08:02:14.114Z,90.00
2023-01-30T08:05:16.441Z,90.55
2023-01-30T08:07:47.626Z,90.80
2023-01-30T08:10:18.007Z,91.35
2023-01-30T08:13:51.602Z,91.27
2023-01-30T08:16:24.275Z,90.76
2023-01-30T08:20:20.124Z,91.05
2023-01-30T08:22:56.432Z,91.70
2023-01-30T08:29:41.641Z,90.88
2023-01-30T08:32:15.979Z,90.83
2023-01-30T08:34:46.403Z,90.82
2023-01-30T08:37:15.792Z,90.35
2023-01-30T08:40:11.063Z,90.32
2023-01-30T08:42:45.252Z,90.07
2023-01-30T08:45:19.917Z,89.25
2023-01-30T08:48:20.913Z,89.24
2023-01-30T08:50:53.236Z,89.88
2023-01-30T08:53:23.257Z,89.60
2023-01-30T08:55:53.235Z,89.14
2023-01-30T08:58:27.604Z,89.06
2023-01-30T09:00:55.887Z,88.60
2023-01-30T09:04:25.246Z,88.38
2023-01-30T09:06:59.206Z,88.84
2023-01-30T09:09:35.907Z,89.16
2023-01-30T09:12:05.764Z,89.39
2023-01-30T09:14:35.516Z,88.84
2023-01-30T09:17:07.208Z,88.36
2023-01-30T09:19:37.639Z,88.37
2023-01-30T09:22:11.253Z,88.53
2023-01-30T09:25:00.321Z,88.65
2023-01-30T09:27:29.747Z,88.69
2023-01-30T09:30:16.434Z,88.69
2023-01-30T09:33:43.260Z,88.69
2023-01-30T09:36:13.568Z,89.28
2023-01-30T09:38:42.965Z,88.43
2023-01-30T09:41:53.319Z,88.79
2023-01-30T09:45:01.668Z,88.77
2023-01-30T09:47:39.792Z,88.01
2023-01-30T09:50:25.149Z,87.68
2023-01-30T09:52:59.184Z,88.58
2023-01-30T09:55:38.565Z,87.89
2023-01-30T09:58:43.558Z,89.25
2023-01-30T10:01:21.525Z,88.20
2023-01-30T10:04:03.388Z,87.59
2023-01-30T10:06:58.819Z,86.90
2023-01-30T10:09:37.021Z,86.87
2023-01-30T10:12:20.837Z,87.32
2023-01-30T10:15:06.112Z,87.43
2023-01-30T10:17:53.806Z,87.27
2023-01-30T10:20:45.092Z,87.23
2023-01-30T10:23:51.447Z,87.71
2023-01-30T10:26:30.675Z,87.44
2023-01-30T10:29:32.899Z,87.00
2023-01-30T10:32:29.163Z,86.31
2023-01-30T10:35:07.953Z,85.83
2023-01-30T10:37:57.331Z,85.64
2023-01-30T10:40:35.902Z,85.69
2023-01-30T10:43:11.177Z,85.96
2023-01-30T10:45:50.770Z,85.71
2023-01-30T10:48:55.737Z,85.20
2023-01-30T10:51:35.350Z,85.24
2023-01-30T10:54:17.976Z,85.83
2023-01-30T10:56:59.141Z,85.46
2023-01-30T11:00:05.210Z,84.79
2023-01-30T11:03:01.647Z,84.94
2023-01-30T11:06:44.696Z,85.07
2023-01-30T11:10:24.682Z,84.20
2023-01-30T11:12:58.032Z,84.92
2023-01-30T11:15:40.776Z,85.69
2023-01-30T11:18:42.192Z,85.39
2023-01-30T11:21:27.086Z,84.81
2023-01-30T11:24:07.129Z,85.02
2023-01-30T11:26:53.845Z,84.28
2023-01-30T11:30:30.862Z,84.28
2023-01-30T11:34:03.337Z,84.81
2023-01-30T11:37:15.443Z,84.24
2023-01-30T11:39:54.317Z,84.04
2023-01-30T11:42:54.189Z,84.04
2023-01-30T11:50:14.746Z,83.88
2023-01-30T11:52:51.080Z,84.32
2023-01-30T11:56:00.209Z,83.86
2023-01-30T11:58:41.118Z,84.60
2023-01-30T12:01:18.114Z,84.70
2023-01-30T12:03:51.612Z,84.56
2023-01-30T12:07:05.464Z,84.88
2023-01-30T12:09:40.723Z,85.03
2023-01-30T12:12:29.926Z,84.89
2023-01-30T12:15:21.790Z,85.21
2023-01-30T12:18:00.953Z,84.98
2023-01-30T12:20:42.102Z,84.72
2023-01-30T12:23:39.441Z,84.64
2023-01-30T12:26:42.132Z,85.08
2023-01-30T12:29:52.619Z,85.07
2023-01-30T12:32:28.872Z,85.24
2023-01-30T12:35:00.314Z,84.80
2023-01-30T12:37:46.781Z,84.96
2023-01-30T12:40:30.266Z,84.89
2023-01-30T12:43:15.827Z,86.91
2023-01-30T12:45:51.877Z,87.29
2023-01-30T12:48:48.810Z,87.04
2023-01-30T12:51:49.456Z,87.66
2023-01-30T12:54:52.170Z,88.09
2023-01-30T12:57:46.275Z,87.23
2023-01-30T13:00:35.759Z,87.64
2023-01-30T13:03:24.460Z,87.87
2023-01-30T13:06:29.324Z,88.57
2023-01-30T13:09:11.244Z,88.05
2023-01-30T13:11:55.115Z,88.00
2023-01-30T13:15:02.473Z,86.54
2023-01-30T13:18:03.637Z,87.37
2023-01-30T13:20:51.358Z,85.89
2023-01-30T13:23:47.464Z,86.44
2023-01-30T13:26:20.605Z,86.42
2023-01-30T13:28:52.543Z,86.41
2023-01-30T13:31:25.272Z,85.46
2023-01-30T13:34:28.020Z,86.81
2023-01-30T13:37:27.434Z,86.32
2023-01-30T13:40:17.979Z,85.45
2023-01-30T13:42:53.625Z,85.89
2023-01-30T13:45:38.107Z,85.65
2023-01-30T13:48:27.147Z,84.55
2023-01-30T13:51:24.273Z,84.84
2023-01-30T13:53:59.856Z,85.40
2023-01-30T13:57:03.815Z,85.51
2023-01-30T14:00:18.034Z,84.81
2023-01-30T14:03:25.905Z,84.85
2023-01-30T14:06:35.843Z,84.66
2023-01-30T14:09:27.300Z,84.47
2023-01-30T14:12:04.114Z,84.42
2023-01-30T14:14:33.991Z,84.26
2023-01-30T14:17:16.300Z,84.73
2023-01-30T14:20:16.446Z,83.59
2023-01-30T14:23:59.397Z,83.65
2023-01-30T14:27:01.804Z,83.49
2023-01-30T14:30:36.534Z,83.37
2023-01-30T14:33:49.072Z,84.22
2023-01-30T14:37:32.829Z,83.38
2023-01-30T14:40:34.248Z,83.19
2023-01-30T14:43:48.517Z,82.95
2023-01-30T14:46:57.197Z,83.21
2023-01-30T14:49:58.803Z,84.09
2023-01-30T14:53:29.327Z,84.10
2023-01-30T14:56:04.171Z,84.38
2023-01-30T14:59:40.447Z,84.68
2023-01-30T15:02:43.753Z,84.19
2023-01-30T15:05:45.887Z,84.67
2023-01-30T15:08:20.554Z,84.86
2023-01-30T15:11:06.486Z,85.16
2023-01-30T15:23:47.009Z,86.30
2023-01-30T15:26:48.395Z,87.05
2023-01-30T15:29:51.380Z,87.65
2023-01-30T15:32:30.179Z,88.85
2023-01-30T15:35:32.883Z,88.92
2023-01-30T15:38:06.398Z,90.31
2023-01-30T15:41:10.955Z,90.47
2023-01-30T15:44:16.900Z,90.77
2023-01-30T15:46:52.386Z,91.15
2023-01-30T15:49:42.790Z,92.04
2023-01-30T15:52:47.346Z,92.45
2023-01-30T15:55:38.183Z,92.92
2023-01-30T15:58:12.165Z,92.88
2023-01-30T16:00:47.334Z,92.63
2023-01-30T16:03:21.787Z,92.40
2023-01-30T16:05:51.217Z,92.46
2023-01-30T16:08:23.903Z,92.93
2023-01-30T16:10:55.666Z,93.03
2023-01-30T16:13:30.190Z,93.13
2023-01-30T16:16:05.895Z,93.36
2023-01-30T16:18:42.447Z,92.95
2023-01-30T16:21:17.616Z,92.78
2023-01-30T16:23:56.369Z,93.10
2023-01-30T16:26:27.073Z,93.69
2023-01-30T16:29:03.966Z,93.40
2023-01-30T16:31:49.721Z,93.91
2023-01-30T16:34:30.482Z,93.91
2023-01-30T16:37:04.424Z,93.83
2023-01-30T16:39:36.444Z,93.92
2023-01-30T16:42:31.259Z,94.16
2023-01-30T16:45:55.160Z,94.20
2023-01-30T16:48:34.639Z,94.07
2023-01-30T16:51:35.282Z,94.42
2023-01-30T16:54:19.351Z,94.01
2023-01-30T16:56:56.166Z,94.32
2023-01-30T16:59:41.452Z,94.29
2023-01-30T17:02:43.282Z,94.40
2023-01-30T17:05:49.454Z,94.43
2023-01-30T17:09:16.470Z,94.47
2023-01-30T17:11:49.253Z,94.44
2023-01-30T17:14:23.271Z,94.29
2023-01-30T17:17:06.748Z,94.12
2023-01-30T17:20:08.600Z,94.02
2023-01-30T17:22:42.074Z,93.29
2023-01-30T17:25:45.436Z,93.54
2023-01-30T17:28:24.879Z,93.38
2023-01-30T17:30:55.486Z,93.07
2023-01-30T17:33:32.078Z,92.98
2023-01-30T17:36:23.990Z,92.63
2023-01-30T17:39:00.810Z,92.47
2023-01-30T17:41:38.341Z,92.23
2023-01-30T17:44:34.374Z,92.59
2023-01-30T17:47:03.995Z,92.53
2023-01-30T17:49:42.499Z,92.39
2023-01-30T17:52:16.772Z,91.89
2023-01-30T17:54:53.280Z,91.35
2023-01-30T17:57:25.252Z,91.53
2023-01-30T18:00:06.385Z,91.43
2023-01-30T18:03:09.812Z,91.68
2023-01-30T18:05:45.245Z,91.42
2023-01-30T18:08:18.923Z,91.36
2023-01-30T18:10:48.771Z,91.44
2023-01-30T18:13:49.099Z,91.26
2023-01-30T18:16:38.271Z,90.67
2023-01-30T18:19:15.147Z,90.27
2023-01-30T18:21:51.130Z,89.52
2023-01-30T18:24:22.477Z,89.66
2023-01-30T18:26:53.853Z,90.04
2023-01-30T18:29:26.593Z,89.61
2023-01-30T18:32:05.505Z,89.57
2023-01-30T18:35:08.127Z,89.73
2023-01-30T18:37:45.413Z,89.27
2023-01-30T18:40:18.948Z,88.87
2023-01-30T18:42:50.895Z,88.96
2023-01-30T18:45:23.424Z,88.81
2023-01-30T18:48:31.285Z,87.91
2023-01-30T18:51:10.349Z,87.87
2023-01-30T18:54:10.845Z,86.65
2023-01-30T18:56:50.751Z,85.78
2023-01-30T18:59:51.268Z,85.05
2023-01-30T19:02:42.344Z,85.70
2023-01-30T19:05:16.112Z,85.36
2023-01-30T19:07:47.145Z,85.82
2023-01-30T19:10:23.189Z,85.70
2023-01-30T19:13:13.326Z,85.97
2023-01-30T19:15:50.154Z,85.05
2023-01-30T19:18:20.456Z,85.21
2023-01-30T19:20:58.231Z,85.10
2023-01-30T19:23:34.561Z,84.62
2023-01-30T19:26:07.211Z,84.84
2023-01-30T19:28:39.108Z,85.18
2023-01-30T19:31:16.160Z,84.98
2023-01-30T19:33:57.429Z,85.10
2023-01-30T19:37:26.689Z,85.47
2023-01-30T19:40:57.819Z,85.15
2023-01-30T19:43:31.098Z,84.95
2023-01-30T19:46:03.264Z,85.12
2023-01-30T19:49:51.180Z,84.59
2023-01-30T19:57:04.435Z,83.88
2023-01-30T20:00:00.976Z,83.40
2023-01-30T20:04:02.670Z,83.08
2023-01-30T20:11:25.626Z,81.62
2023-01-30T20:13:57.014Z,82.00
2023-01-30T20:16:32.014Z,80.72
2023-01-30T20:19:05.386Z,81.14
2023-01-30T20:21:38.359Z,80.86
2023-01-30T20:24:14.277Z,81.01
2023-01-30T20:26:51.589Z,81.04
2023-01-30T20:29:54.079Z,80.63
2023-01-30T20:32:30.159Z,80.99
2023-01-30T20:36:11.197Z,81.66
2023-01-30T20:38:47.368Z,81.79
2023-01-30T20:46:06.991Z,81.20
2023-01-30T20:49:05.773Z,80.50
2023-01-30T20:51:41.202Z,80.82
2023-01-30T20:54:29.009Z,79.78
2023-01-30T20:57:03.742Z,79.96
2023-01-30T20:59:34.297Z,80.53
2023-01-30T21:02:08.023Z,80.30
2023-01-30T21:04:40.386Z,80.11
2023-01-30T21:07:10.418Z,80.53
2023-01-30T21:09:43.781Z,81.37
2023-01-30T21:12:16.566Z,81.33
2023-01-30T21:14:47.535Z,81.68
2023-01-30T21:17:53.793Z,82.70
2023-01-30T21:20:27.910Z,83.43
2023-01-30T21:27:32.864Z,82.81
2023-01-30T21:31:28.617Z,82.28
2023-01-30T21:34:27.527Z,81.49
2023-01-30T21:37:17.679Z,81.41
2023-01-30T21:40:39.044Z,81.04
2023-01-30T21:43:33.640Z,80.78
2023-01-30T21:46:03.319Z,80.12
2023-01-30T21:49:09.961Z,80.48
2023-01-30T21:51:42.419Z,79.08
2023-01-30T21:54:19.857Z,79.46
2023-01-30T21:56:49.630Z,79.55
2023-01-30T21:59:18.639Z,79.48
2023-01-30T22:01:46.942Z,79.60
2023-01-30T22:04:19.612Z,78.68
2023-01-30T22:07:20.607Z,79.07
2023-01-30T22:09:53.317Z,78.85
2023-01-30T22:12:23.647Z,79.22
2023-01-30T22:14:53.855Z,78.91
2023-01-30T22:17:51.081Z,78.75
2023-01-30T22:20:34.629Z,78.43
2023-01-30T22:23:10.869Z,78.56
2023-01-30T22:25:44.211Z,77.77
2023-01-30T22:28:14.446Z,78.09
2023-01-30T22:30:43.729Z,78.29
2023-01-30T22:33:11.999Z,77.83
2023-01-30T22:35:49.472Z,77.58
2023-01-30T22:38:29.783Z,77.64
2023-01-30T22:41:06.715Z,77.27
2023-01-30T22:43:39.428Z,77.76
2023-01-30T22:46:12.024Z,77.31
2023-01-30T22:48:59.573Z,77.81
2023-01-30T22:51:56.279Z,77.37
2023-01-30T22:54:27.667Z,78.06
2023-01-30T22:57:27.206Z,77.52
2023-01-30T22:59:56.477Z,77.57
2023-01-30T23:02:59.541Z,78.32
2023-01-30T23:05:35.868Z,77.65
2023-01-30T23:08:05.271Z,77.13
2023-01-30T23:10:40.357Z,77.25
2023-01-30T23:13:16.817Z,77.79
2023-01-30T23:15:46.825Z,79.64
2023-01-30T23:18:35.844Z,81.71
2023-01-30T23:21:04.167Z,83.36
2023-01-30T23:24:06.577Z,84.74
2023-01-30T23:26:42.659Z,85.68
2023-01-30T23:29:17.319Z,86.09
2023-01-30T23:31:48.006Z,86.08
2023-01-30T23:35:21.072Z,86.92
2023-01-30T23:39:03.961Z,85.76
2023-01-30T23:42:31.004Z,85.84
2023-01-30T23:45:30.148Z,85.18
2023-01-30T23:48:32.507Z,84.28
2023-01-30T23:55:33.412Z,83.26
2023-01-30T23:58:30.106Z,83.56
